Mc Guire Air Force Base
KWRI : now visible

Airfield :











YOU CAN JOIN US ON...

 
LOGIN :

Register | Disclaimer

   EN    FR    IT 

 









Legend :    VFR   Marginal VFR   IFR   Intensive IFR   Very Intensive IFR
Visi :
Ceiling :
>= 8 km
>= 3000ft
5 to 8 km
1000 to 3000 ft
1500m to 5 km
500 to 1000 ft
800 to 1500m
200 to 500 ft
< 800m
< 200 ft
Symbols :   Thunderstorms  Fog  Heavy snow  Heavy precipitations  Wind > 20 kt






- Airport Elevation : 131 ft
- IATA code : WRI


KWRI - Mc Guire Air Force Base

CURRENT METAR :
  • 180556Z AUTO 05004KT 7SM BKN100 BKN130 M01/M03 A3034 RMK AO2 SLP275 T10131030 10040 21026 50001 $

EXPIRED METARs :
  • 180456Z 00000KT 7SM SCT130 M02/M04 A3034 RMK AO2A SLP275 T10231040 401181024 $
  • 180356Z 00000KT 7SM SCT140 BKN180 M01/M04 A3035 RMK AO2A SLP278 T10121039 $

TAF TAF KWRI
Valid from the 18 at 02:00 until the 19 at 08:00 UTC


180200Z 1802/1908 10007KT 9999 SCT100 QNH3028INS
BECMG 1807/1808 10009KT 9999 BKN040 QNH3021INS
BECMG 1813/1814 10012KT 8000 -SHRA OVC020 QNH3020INS
BECMG 1815/1816 18012G18KT 8000 -RA OVC015 QNH3004INS
BECMG 1900/1902 21009KT 6000 -RA BR OVC009 QNH3003INS
BECMG 1905/1907 30009KT 9999 VCSH SCT015 BKN040 QNH3005INS TX12/1819Z TNM01/1804Z



MET'MAP, your aeronautical weather chart ! - Copyright ORBIFLY December 2007 - Disclaimer

ORBIFLY MET'MAP TEAM :

Programming & Development : Alexandra Zaïnal
Concept & original design : Baudouin d'Aumeries
Assistance for programming : Marc-Olivier Méhu
Technical & hardware support : Manuel Goepfert

Contact : metmap@orbifly.com




SOURCES & CREDITS :

   NOAA       Earth
Advisory